Weather at Lundy Island Airfield

Public forecast

Using degrees Celsius for public forecast. Weather courtesy of forecast.io.

Closest aviation weather report (METAR) to Lundy Island Airfield

Closest report is Newquay Cornwall Airport, 45.5 nm (84.3 km) SSW. Retrieved 2021/10/23 00:20 UTC (0 seconds ago):

EGHQ 230020Z AUTO 16008KT 9999 OVC040/// 10/06 Q1025

Closest aviation forecast (TAF) to Lundy Island Airfield

Forecast is more than 12 hours old.

Closest forecast is Plymouth City Airport, 49.7 nm (92.1 km) SSE. Retrieved 2010/07/06 05:57 UTC (11 years ago):

TAF TAF EGHD 060557Z 0606/0618 24006KT 9999 FEW015